Time;durP1;ratioP1;P1;durP2;ratioP2;P2;SDS_P1;SDS_P2;PMS_P1;PMS_P2;Temp;Humidity;BMP_temperature;BMP_pressure;BME280_temperature;BME280_humidity;BME280_pressure;Samples;Min_cycle;Max_cycle;Signal;HPM_P1;HPM_P2
2022/11/30 00:08:16;;;;;;;14.18;6.95;;;;;;;;;;20999204;28;20048;-66
2022/11/30 00:18:22;;;;;;;14.95;7.30;;;;;;;;;;20999683;28;20044;-64
2022/11/30 00:28:25;;;;;;;11.73;6.85;;;;;;;;;;20998891;28;20057;-68
2022/11/30 00:38:27;;;;;;;12.88;6.32;;;;;;;;;;21001259;28;20052;-66
2022/11/30 00:48:30;;;;;;;10.70;6.20;;;;;;;;;;21008661;28;20084;-68
2022/11/30 00:58:33;;;;;;;12.75;7.00;;;;;;;;;;20996586;28;20052;-67
2022/11/30 01:08:35;;;;;;;10.85;5.65;;;;;;;;;;20996818;28;20048;-70
2022/11/30 01:18:38;;;;;;;10.77;6.25;;;;;;;;;;20997367;28;20048;-69
2022/11/30 01:28:43;;;;;;;11.77;7.25;;;;;;;;;;20997453;28;20048;-68
2022/11/30 01:38:48;;;;;;;12.38;7.57;;;;;;;;;;20997208;28;20127;-67
2022/11/30 01:48:59;;;;;;;19.25;8.95;;;;;;;;;;21034609;28;20056;-68
2022/11/30 01:59:01;;;;;;;28.58;9.23;;;;;;;;;;21000615;28;20056;-68
2022/11/30 02:09:04;;;;;;;17.35;9.38;;;;;;;;;;21027786;28;20060;-67
2022/11/30 02:19:06;;;;;;;13.02;6.75;;;;;;;;;;21010437;28;20048;-69
2022/11/30 02:29:09;;;;;;;13.07;7.20;;;;;;;;;;21008387;28;20071;-65
2022/11/30 02:39:11;;;;;;;16.10;7.20;;;;;;;;;;21008596;28;20496;-67
2022/11/30 02:49:23;;;;;;;12.82;4.95;;;;;;;;;;21013310;28;20215;-67
2022/11/30 02:59:33;;;;;;;10.38;5.50;;;;;;;;;;21014410;28;20127;-67
2022/11/30 03:09:40;;;;;;;9.77;4.35;;;;;;;;;;21006891;28;20484;-64
2022/11/30 03:19:50;;;;;;;6.88;4.35;;;;;;;;;;21021047;28;20068;-66
2022/11/30 03:29:55;;;;;;;7.50;4.07;;;;;;;;;;21004137;28;20049;-67
2022/11/30 03:40:07;;;;;;;7.40;4.30;;;;;;;;;;21004049;28;20064;-69
2022/11/30 03:50:15;;;;;;;6.47;4.30;;;;;;;;;;21003358;28;20060;-69
2022/11/30 04:00:18;;;;;;;8.90;3.97;;;;;;;;;;21002542;28;20052;-67
2022/11/30 04:10:23;;;;;;;5.83;3.97;;;;;;;;;;20999883;28;20052;-68
2022/11/30 04:20:29;;;;;;;5.20;3.42;;;;;;;;;;20999339;28;20055;-65
2022/11/30 04:30:33;;;;;;;8.18;3.97;;;;;;;;;;20998519;28;20056;-67
2022/11/30 04:40:55;;;;;;;6.90;4.13;;;;;;;;;;20998862;28;20542;-70
2022/11/30 04:51:16;;;;;;;7.75;3.97;;;;;;;;;;20997496;28;20089;-69
2022/11/30 05:01:19;;;;;;;4.82;3.60;;;;;;;;;;21000285;28;20049;-69
2022/11/30 05:11:24;;;;;;;5.17;3.40;;;;;;;;;;20996949;28;20481;-67
2022/11/30 05:21:27;;;;;;;6.03;3.50;;;;;;;;;;20996762;28;20052;-66
2022/11/30 05:31:31;;;;;;;11.30;4.55;;;;;;;;;;20995519;28;20060;-69
2022/11/30 05:41:33;;;;;;;8.35;4.13;;;;;;;;;;20995506;28;20063;-68
2022/11/30 05:51:35;;;;;;;7.95;4.50;;;;;;;;;;21010458;28;20404;-70
2022/11/30 06:01:38;;;;;;;7.88;4.60;;;;;;;;;;21013536;28;20048;-69
2022/11/30 06:11:43;;;;;;;;;;;;;;;;;;21012547;28;20090;-69
2022/11/30 06:21:45;;;;;;;8.57;4.60;;;;;;;;;;21013643;28;19924;-66
2022/11/30 06:31:48;;;;;;;15.73;4.82;;;;;;;;;;21010038;28;20115;-66
2022/11/30 06:41:50;;;;;;;9.10;4.57;;;;;;;;;;21017096;28;20052;-67
2022/11/30 06:51:52;;;;;;;9.75;4.55;;;;;;;;;;21009655;28;20094;-68
2022/11/30 07:01:54;;;;;;;9.95;5.18;;;;;;;;;;21007715;28;20067;-68
2022/11/30 07:11:56;;;;;;;8.45;5.10;;;;;;;;;;21089596;28;20105;-61
2022/11/30 07:21:58;;;;;;;12.27;5.32;;;;;;;;;;21092477;28;20464;-62
2022/11/30 07:32:00;;;;;;;11.48;6.88;;;;;;;;;;21017278;28;20440;-68
2022/11/30 07:42:02;;;;;;;12.00;6.63;;;;;;;;;;21008463;28;20178;-67
2022/11/30 07:52:04;;;;;;;25.58;11.07;;;;;;;;;;21003395;28;20049;-68
2022/11/30 08:02:06;;;;;;;10.32;4.97;;;;;;;;;;21001780;28;20400;-67
2022/11/30 08:12:08;;;;;;;12.52;4.80;;;;;;;;;;21000996;28;20056;-67
2022/11/30 08:22:10;;;;;;;7.60;4.25;;;;;;;;;;21001164;28;20045;-67
2022/11/30 08:32:13;;;;;;;8.98;4.10;;;;;;;;;;20999736;28;20555;-65
2022/11/30 08:42:15;;;;;;;10.45;4.75;;;;;;;;;;20999755;28;20542;-68
2022/11/30 08:52:18;;;;;;;9.45;4.80;;;;;;;;;;20999455;28;20094;-69
2022/11/30 09:02:20;;;;;;;10.80;6.45;;;;;;;;;;20997028;28;20076;-67
2022/11/30 09:12:22;;;;;;;10.13;5.38;;;;;;;;;;20997276;28;20044;-70
2022/11/30 09:22:25;;;;;;;14.40;5.78;;;;;;;;;;20996870;28;20048;-68
2022/11/30 09:32:28;;;;;;;11.82;6.53;;;;;;;;;;20996594;28;20063;-67
2022/11/30 09:42:33;;;;;;;19.20;8.00;;;;;;;;;;20996410;28;20386;-66
2022/11/30 09:52:37;;;;;;;15.82;7.97;;;;;;;;;;20996865;28;20525;-67
2022/11/30 10:02:39;;;;;;;16.02;7.78;;;;;;;;;;21054935;28;20091;-63
2022/11/30 10:12:48;;;;;;;19.10;8.40;;;;;;;;;;21034390;28;20055;-61
2022/11/30 10:23:17;;;;;;;19.33;10.88;;;;;;;;;;21083701;28;20079;-69
2022/11/30 10:33:23;;;;;;;27.88;12.20;;;;;;;;;;21063305;28;20064;-65
2022/11/30 10:43:31;;;;;;;17.52;7.43;;;;;;;;;;21098864;28;20142;-69
2022/11/30 10:53:33;;;;;;;15.70;8.02;;;;;;;;;;21085263;28;20055;-67
2022/11/30 11:03:36;;;;;;;12.00;7.65;;;;;;;;;;21082928;28;20048;-69
2022/11/30 11:13:39;;;;;;;11.00;5.82;;;;;;;;;;21090971;28;20051;-67
2022/11/30 11:23:42;;;;;;;12.07;6.22;;;;;;;;;;21095664;28;20044;-68
2022/11/30 11:33:50;;;;;;;13.73;5.90;;;;;;;;;;21108520;28;20107;-65
2022/11/30 11:43:58;;;;;;;10.40;5.60;;;;;;;;;;21099225;28;20056;-69
2022/11/30 11:54:02;;;;;;;13.65;5.57;;;;;;;;;;21090025;28;20044;-70
2022/11/30 12:04:22;;;;;;;8.43;4.43;;;;;;;;;;21124975;28;20056;-67
2022/11/30 12:14:25;;;;;;;9.20;5.57;;;;;;;;;;21118734;28;20480;-67
2022/11/30 12:24:36;;;;;;;10.52;6.68;;;;;;;;;;21089344;28;20051;-64
2022/11/30 12:34:56;;;;;;;13.98;9.45;;;;;;;;;;21083644;28;20048;-63
2022/11/30 12:45:04;;;;;;;24.35;13.68;;;;;;;;;;21083544;28;20141;-59
2022/11/30 12:55:24;;;;;;;12.55;6.50;;;;;;;;;;21078436;28;20476;-58
2022/11/30 13:05:31;;;;;;;11.18;6.72;;;;;;;;;;21079097;28;20052;-65
2022/11/30 13:15:34;;;;;;;11.27;6.60;;;;;;;;;;21078099;28;20048;-56
2022/11/30 13:25:56;;;;;;;11.90;6.05;;;;;;;;;;21070639;28;20060;-56
2022/11/30 13:36:27;;;;;;;13.73;6.88;;;;;;;;;;21077226;28;20161;-57
2022/11/30 13:46:29;;;;;;;13.45;7.03;;;;;;;;;;21074620;28;20052;-57
2022/11/30 13:56:33;;;;;;;9.25;5.60;;;;;;;;;;21077502;28;20048;-56
2022/11/30 14:06:41;;;;;;;6.68;4.28;;;;;;;;;;21081592;28;20083;-56
2022/11/30 14:16:44;;;;;;;10.27;3.90;;;;;;;;;;21091927;28;20044;-57
2022/11/30 14:26:48;;;;;;;8.75;4.18;;;;;;;;;;21091411;28;20492;-56
2022/11/30 14:37:02;;;;;;;9.05;4.38;;;;;;;;;;21090569;28;20143;-58
2022/11/30 14:47:14;;;;;;;10.73;5.13;;;;;;;;;;21089731;28;20044;-57
2022/11/30 14:57:20;;;;;;;8.95;4.85;;;;;;;;;;21088958;28;20044;-58
2022/11/30 15:07:24;;;;;;;10.15;4.82;;;;;;;;;;21089035;28;20059;-56
2022/11/30 15:17:26;;;;;;;9.85;5.28;;;;;;;;;;21086764;28;20097;-57
2022/11/30 15:27:29;;;;;;;10.90;5.97;;;;;;;;;;21087628;28;20483;-57
2022/11/30 15:37:38;;;;;;;8.15;4.85;;;;;;;;;;21086396;28;20055;-58
2022/11/30 15:47:40;;;;;;;8.27;3.45;;;;;;;;;;21084686;28;20060;-57
2022/11/30 15:58:01;;;;;;;8.85;4.35;;;;;;;;;;21084724;28;20129;-58
2022/11/30 16:08:05;;;;;;;46.58;26.13;;;;;;;;;;21083850;28;20101;-57
2022/11/30 16:18:24;;;;;;;9.55;3.95;;;;;;;;;;21082755;28;20044;-62
2022/11/30 16:28:26;;;;;;;9.18;3.28;;;;;;;;;;21082219;28;20514;-57
2022/11/30 16:38:29;;;;;;;7.95;4.18;;;;;;;;;;20986589;28;20049;-59
2022/11/30 16:48:32;;;;;;;6.13;2.80;;;;;;;;;;20913665;28;20139;-66
2022/11/30 16:58:34;;;;;;;8.93;2.90;;;;;;;;;;20912954;28;20049;-62
2022/11/30 17:08:36;;;;;;;11.20;3.55;;;;;;;;;;20912427;28;20049;-61
2022/11/30 17:18:39;;;;;;;10.02;3.80;;;;;;;;;;20920490;28;20083;-63
2022/11/30 17:28:41;;;;;;;12.27;5.82;;;;;;;;;;20913269;28;20072;-58
2022/11/30 17:38:44;;;;;;;14.68;4.82;;;;;;;;;;20952566;28;20052;-59
2022/11/30 17:48:46;;;;;;;10.40;4.78;;;;;;;;;;21007192;28;20052;-59
2022/11/30 17:58:48;;;;;;;8.52;4.18;;;;;;;;;;21011670;28;20052;-68
2022/11/30 18:08:50;;;;;;;9.88;4.25;;;;;;;;;;20992109;28;20052;-61
2022/11/30 18:18:56;;;;;;;10.87;5.53;;;;;;;;;;21008226;28;20041;-60
2022/11/30 18:28:58;;;;;;;10.93;4.88;;;;;;;;;;21006441;28;20052;-59
2022/11/30 18:39:01;;;;;;;14.32;6.05;;;;;;;;;;21006057;28;20048;-66
2022/11/30 18:49:05;;;;;;;12.70;4.65;;;;;;;;;;20997297;28;20166;-66
2022/11/30 18:59:11;;;;;;;11.52;5.95;;;;;;;;;;21000013;28;20155;-61
2022/11/30 19:09:14;;;;;;;15.23;6.63;;;;;;;;;;20981921;28;20059;-60
2022/11/30 19:19:16;;;;;;;14.88;8.55;;;;;;;;;;21001955;28;20122;-56
2022/11/30 19:29:18;;;;;;;12.68;4.78;;;;;;;;;;21004542;28;20454;-64
2022/11/30 19:39:20;;;;;;;12.00;5.25;;;;;;;;;;21002807;28;20049;-68
2022/11/30 19:49:22;;;;;;;11.60;5.65;;;;;;;;;;21000808;28;20059;-58
2022/11/30 19:59:23;;;;;;;8.90;5.25;;;13.40;61.30;;;;;;21002740;28;20094;-66
2022/11/30 20:09:25;;;;;;;8.55;5.15;;;13.20;58.40;;;;;;21000261;28;20052;-61
2022/11/30 20:19:27;;;;;;;10.02;4.88;;;13.20;56.50;;;;;;20999332;28;20072;-59
2022/11/30 20:29:28;;;;;;;9.93;5.38;;;12.20;56.30;;;;;;20995273;28;20060;-61
2022/11/30 20:39:31;;;;;;;20.65;11.88;;;11.80;56.50;;;;;;20997373;28;20091;-60
2022/11/30 20:49:33;;;;;;;13.43;7.28;;;11.70;57.50;;;;;;20997048;28;20055;-59
2022/11/30 20:59:35;;;;;;;10.27;6.65;;;11.50;58.50;;;;;;20997621;28;20052;-60
2022/11/30 21:09:37;;;;;;;10.93;5.90;;;11.30;59.40;;;;;;20997155;28;20048;-61
2022/11/30 21:19:38;;;;;;;9.77;5.05;;;11.20;59.70;;;;;;20995089;28;20471;-62
2022/11/30 21:29:40;;;;;;;7.45;4.35;;;11.10;59.90;;;;;;20995160;28;20158;-62
2022/11/30 21:39:42;;;;;;;8.50;5.10;;;11.00;60.30;;;;;;20995187;28;20041;-64
2022/11/30 21:49:45;;;;;;;13.02;8.73;;;10.90;60.70;;;;;;20994667;28;20048;-65
2022/11/30 21:59:47;;;;;;;13.40;9.38;;;10.90;61.00;;;;;;20994152;28;20049;-60
2022/11/30 22:09:50;;;;;;;11.63;5.90;;;10.80;61.40;;;;;;20994077;28;20451;-61
2022/11/30 22:19:59;;;;;;;13.57;7.53;;;10.80;61.50;;;;;;20992930;28;20059;-60
2022/11/30 22:30:08;;;;;;;19.85;9.23;;;10.70;61.90;;;;;;20999835;28;20060;-61
2022/11/30 22:40:17;;;;;;;14.98;5.78;;;10.70;62.30;;;;;;21008144;28;20123;-62
2022/11/30 22:50:18;;;;;;;13.88;6.15;;;10.60;62.60;;;;;;21006788;28;20055;-60
2022/11/30 23:00:21;;;;;;;13.27;6.05;;;10.50;62.70;;;;;;21006029;28;20048;-61
2022/11/30 23:10:23;;;;;;;17.42;10.43;;;10.40;63.30;;;;;;21005380;28;20508;-60
2022/11/30 23:20:26;;;;;;;9.63;4.97;;;10.40;63.70;;;;;;21005025;28;20094;-60
2022/11/30 23:30:28;;;;;;;9.82;4.28;;;10.20;64.10;;;;;;21003374;28;20411;-61
2022/11/30 23:40:30;;;;;;;15.70;4.95;;;10.20;64.40;;;;;;20984092;28;20052;-61
2022/11/30 23:50:32;;;;;;;6.97;4.40;;;10.20;64.10;;;;;;21002738;28;20141;-61
